createdAt,value
2019-01-06T00:00:16.217Z,102055.31
2019-01-06T00:03:02.615Z,102062.54
2019-01-06T00:05:48.800Z,102060.57
2019-01-06T00:08:27.673Z,102058.41
2019-01-06T00:11:03.752Z,102055.05
2019-01-06T00:13:36.516Z,102057.76
2019-01-06T00:16:06.617Z,102055.80
2019-01-06T00:18:54.776Z,102065.59
2019-01-06T00:21:43.056Z,102061.23
2019-01-06T00:24:29.184Z,102070.73
2019-01-06T00:26:59.290Z,102070.87
2019-01-06T00:29:31.746Z,102069.48
2019-01-06T00:32:17.822Z,102077.83
2019-01-06T00:35:04.048Z,102076.17
2019-01-06T00:37:37.091Z,102071.78
2019-01-06T00:40:22.498Z,102074.37
2019-01-06T00:42:52.551Z,102077.32
2019-01-06T00:45:22.662Z,102081.31
2019-01-06T00:48:04.945Z,102088.49
2019-01-06T00:50:51.269Z,102090.55
2019-01-06T00:53:33.275Z,102089.03
2019-01-06T00:56:09.102Z,102086.44
2019-01-06T00:58:42.144Z,102091.58
2019-01-06T01:01:15.173Z,102098.28
2019-01-06T01:04:01.826Z,102105.52
2019-01-06T01:06:47.002Z,102101.41
2019-01-06T01:09:43.462Z,102102.05
2019-01-06T01:12:14.042Z,102100.77
2019-01-06T01:15:00.332Z,102096.13
2019-01-06T01:17:33.376Z,102095.39
2019-01-06T01:20:03.458Z,102096.38
2019-01-06T01:22:45.638Z,102094.98
2019-01-06T01:25:18.689Z,102105.36
2019-01-06T01:27:54.725Z,102109.85
2019-01-06T01:30:33.507Z,102115.59
2019-01-06T01:33:19.514Z,102111.62
2019-01-06T01:36:05.584Z,102113.52
2019-01-06T01:38:41.346Z,102118.64
2019-01-06T01:41:11.445Z,102122.25
2019-01-06T01:43:53.371Z,102124.19
2019-01-06T01:46:32.376Z,102120.69
2019-01-06T01:49:08.424Z,102119.62
2019-01-06T01:51:56.787Z,102123.61
2019-01-06T01:54:26.867Z,102126.30
2019-01-06T01:56:56.959Z,102126.16
2019-01-06T01:59:42.363Z,102124.73
2019-01-06T02:02:21.181Z,102136.30
2019-01-06T02:04:53.926Z,102133.06
2019-01-06T02:07:24.055Z,102134.22
2019-01-06T02:10:00.472Z,102136.02
2019-01-06T02:12:36.544Z,102141.43
2019-01-06T02:15:07.183Z,102142.84
2019-01-06T02:17:37.289Z,102150.41
2019-01-06T02:20:20.399Z,102154.56
2019-01-06T02:22:56.262Z,102153.56
2019-01-06T02:25:32.025Z,102157.95
2019-01-06T02:28:08.101Z,102155.45
2019-01-06T02:30:43.873Z,102155.14
2019-01-06T02:33:22.874Z,102158.69
2019-01-06T02:36:08.873Z,102151.38
2019-01-06T02:38:38.993Z,102153.17
2019-01-06T02:41:25.779Z,102152.02
2019-01-06T02:44:12.327Z,102156.77
2019-01-06T02:46:50.939Z,102160.33
2019-01-06T02:49:39.090Z,102159.18
2019-01-06T02:52:18.157Z,102156.08
2019-01-06T02:54:51.207Z,102172.14
2019-01-06T02:57:37.859Z,102162.28
2019-01-06T03:00:25.397Z,102170.23
2019-01-06T03:03:10.782Z,102170.00
2019-01-06T03:05:46.478Z,102169.34
2019-01-06T03:08:19.063Z,102176.31
2019-01-06T03:10:58.140Z,102175.14
2019-01-06T03:13:31.025Z,102183.38
2019-01-06T03:16:01.093Z,102176.67
2019-01-06T03:18:31.206Z,102183.36
2019-01-06T03:21:19.467Z,102182.27
2019-01-06T03:23:52.305Z,102184.91
2019-01-06T03:26:28.230Z,102183.88
2019-01-06T03:29:00.747Z,102176.95
2019-01-06T03:31:39.845Z,102181.28
2019-01-06T03:34:12.579Z,102186.44
2019-01-06T03:36:42.653Z,102185.64
2019-01-06T03:39:30.939Z,102186.19
2019-01-06T03:42:18.575Z,102176.37
2019-01-06T03:44:48.656Z,102185.05
2019-01-06T03:47:27.563Z,102180.28
2019-01-06T03:50:13.849Z,102182.36
2019-01-06T03:52:52.620Z,102188.76
2019-01-06T03:55:39.338Z,102191.30
2019-01-06T03:58:09.421Z,102184.89
2019-01-06T04:00:51.376Z,102184.48
2019-01-06T04:03:21.448Z,102194.38
2019-01-06T04:06:03.186Z,102196.05
2019-01-06T04:08:49.188Z,102192.84
2019-01-06T04:11:19.291Z,102192.30
2019-01-06T04:14:06.023Z,102193.89
2019-01-06T04:16:52.914Z,102193.36
2019-01-06T04:19:22.994Z,102193.09
2019-01-06T04:22:02.380Z,102196.94
2019-01-06T04:24:48.572Z,102201.81
2019-01-06T04:27:21.037Z,102205.67
2019-01-06T04:29:51.118Z,102207.98
2019-01-06T04:32:37.835Z,102200.61
2019-01-06T04:35:24.128Z,102196.37
2019-01-06T04:38:10.093Z,102194.60
2019-01-06T04:40:49.128Z,102195.23
2019-01-06T04:43:24.979Z,102192.54
2019-01-06T04:45:57.560Z,102202.30
2019-01-06T04:48:30.446Z,102193.82
2019-01-06T04:51:16.702Z,102202.20
2019-01-06T04:54:02.998Z,102197.48
2019-01-06T04:56:48.347Z,102194.09
2019-01-06T04:59:34.546Z,102203.27
2019-01-06T05:02:04.656Z,102207.21
2019-01-06T05:04:51.232Z,102211.20
2019-01-06T05:07:37.316Z,102210.03
2019-01-06T05:10:07.543Z,102214.91
2019-01-06T05:12:52.912Z,102217.89
2019-01-06T05:15:22.999Z,102205.89
2019-01-06T05:18:09.412Z,102210.48
2019-01-06T05:20:57.618Z,102213.63
2019-01-06T05:23:44.028Z,102220.27
2019-01-06T05:26:32.607Z,102223.14
2019-01-06T05:29:05.230Z,102216.83
2019-01-06T05:31:51.598Z,102220.05
2019-01-06T05:34:21.692Z,102215.83
2019-01-06T05:37:06.651Z,102223.29
2019-01-06T05:39:42.191Z,102227.41
2019-01-06T05:42:12.292Z,102223.53
2019-01-06T05:44:45.173Z,102233.91
2019-01-06T05:47:31.318Z,102244.70
2019-01-06T05:50:01.389Z,102241.57
2019-01-06T05:52:47.768Z,102240.86
2019-01-06T05:55:23.775Z,102249.12
2019-01-06T05:57:56.560Z,102253.42
2019-01-06T06:00:38.827Z,102253.03
2019-01-06T06:03:24.798Z,102261.53
2019-01-06T06:06:06.795Z,102264.55
2019-01-06T06:08:45.578Z,102269.32
2019-01-06T06:11:18.630Z,102270.75
2019-01-06T06:13:57.935Z,102276.03
2019-01-06T06:16:30.771Z,102273.47
2019-01-06T06:19:12.815Z,102270.99
2019-01-06T06:21:51.887Z,102274.39
2019-01-06T06:24:25.039Z,102276.80
2019-01-06T06:27:11.747Z,102277.88
2019-01-06T06:29:41.862Z,102285.34
2019-01-06T06:32:23.926Z,102285.44
2019-01-06T06:35:10.417Z,102287.46
2019-01-06T06:37:49.242Z,102290.23
2019-01-06T06:40:37.422Z,102297.07
2019-01-06T06:43:19.326Z,102306.38
2019-01-06T06:45:55.087Z,102301.52
2019-01-06T06:48:34.067Z,102311.23
2019-01-06T06:51:22.231Z,102303.95
2019-01-06T06:53:52.329Z,102304.37
2019-01-06T06:56:40.726Z,102314.37
2019-01-06T06:59:13.855Z,102307.45
2019-01-06T07:01:55.863Z,102312.58
2019-01-06T07:04:38.208Z,102311.03
2019-01-06T07:07:08.279Z,102320.19
2019-01-06T07:09:54.665Z,102311.03
2019-01-06T07:12:24.736Z,102314.52
2019-01-06T07:15:13.135Z,102317.63
2019-01-06T07:17:47.376Z,102325.14
2019-01-06T07:20:23.191Z,102327.55
2019-01-06T07:22:53.268Z,102329.56
2019-01-06T07:25:26.770Z,102337.28
2019-01-06T07:28:12.518Z,102344.12
2019-01-06T07:30:48.567Z,102345.43
2019-01-06T07:33:27.750Z,102350.87
2019-01-06T07:35:57.846Z,102355.77
2019-01-06T07:38:43.301Z,102352.39
2019-01-06T07:41:13.484Z,102359.27
2019-01-06T07:44:00.126Z,102361.23
2019-01-06T07:46:30.206Z,102368.02
2019-01-06T07:49:00.283Z,102363.75
2019-01-06T07:51:30.382Z,102366.08
2019-01-06T07:54:12.486Z,102359.84
2019-01-06T07:56:54.496Z,102363.04
2019-01-06T07:59:24.608Z,102361.64
2019-01-06T08:02:10.876Z,102365.52
2019-01-06T08:04:57.378Z,102369.80
2019-01-06T08:07:39.196Z,102370.62
2019-01-06T08:10:25.912Z,102374.73
2019-01-06T08:13:04.820Z,102371.02
2019-01-06T08:15:43.717Z,102370.78
2019-01-06T08:18:29.916Z,102378.57
2019-01-06T08:21:08.964Z,102373.83
2019-01-06T08:23:48.036Z,102378.12
2019-01-06T08:26:18.124Z,102381.16
2019-01-06T08:28:48.237Z,102383.55
2019-01-06T08:31:21.108Z,102385.47
2019-01-06T08:33:56.645Z,102388.04
2019-01-06T08:36:35.490Z,102389.22
2019-01-06T08:39:22.820Z,102397.53
2019-01-06T08:42:08.966Z,102391.62
2019-01-06T08:44:48.259Z,102401.12
2019-01-06T08:47:23.855Z,102404.42
2019-01-06T08:49:53.981Z,102404.22
2019-01-06T08:52:33.278Z,102402.69
2019-01-06T08:55:03.352Z,102404.93
2019-01-06T08:57:39.367Z,102405.00
2019-01-06T09:00:25.463Z,102410.40
2019-01-06T09:03:11.805Z,102408.91
2019-01-06T09:05:58.229Z,102412.64
2019-01-06T09:08:28.407Z,102411.98
2019-01-06T09:11:10.752Z,102409.92
2019-01-06T09:13:57.014Z,102405.08
2019-01-06T09:16:43.216Z,102409.20
2019-01-06T09:19:29.206Z,102415.06
2019-01-06T09:22:08.319Z,102412.91
2019-01-06T09:24:54.523Z,102408.52
2019-01-06T09:27:24.717Z,102408.03
2019-01-06T09:29:57.757Z,102411.64
2019-01-06T09:32:27.940Z,102405.77
2019-01-06T09:35:03.778Z,102403.77
2019-01-06T09:37:50.287Z,102401.78
2019-01-06T09:40:27.150Z,102399.98
2019-01-06T09:43:03.229Z,102405.87
2019-01-06T09:45:48.064Z,102410.46
2019-01-06T09:48:34.602Z,102410.50
2019-01-06T09:51:13.377Z,102413.48
2019-01-06T09:53:52.229Z,102412.34
2019-01-06T09:56:25.231Z,102417.23
2019-01-06T09:58:57.880Z,102407.13
2019-01-06T10:01:46.024Z,102405.77
2019-01-06T10:04:16.123Z,102405.43
2019-01-06T10:06:46.202Z,102402.97
2019-01-06T10:09:28.667Z,102404.14
2019-01-06T10:11:58.736Z,102405.82
2019-01-06T10:14:46.904Z,102401.18
2019-01-06T10:17:32.875Z,102401.27
2019-01-06T10:20:19.356Z,102400.86
2019-01-06T10:23:05.792Z,102407.77
2019-01-06T10:25:50.833Z,102403.70
2019-01-06T10:28:29.586Z,102405.06
2019-01-06T10:31:08.695Z,102409.00
2019-01-06T10:33:38.804Z,102404.19
2019-01-06T10:36:08.884Z,102406.03
2019-01-06T10:38:38.992Z,102399.41
2019-01-06T10:41:12.040Z,102401.12
2019-01-06T10:44:00.543Z,102396.85
2019-01-06T10:46:45.582Z,102396.70
2019-01-06T10:49:18.539Z,102399.17
2019-01-06T10:51:48.618Z,102411.19
2019-01-06T10:54:18.722Z,102399.47
2019-01-06T10:57:04.127Z,102412.05
2019-01-06T10:59:43.143Z,102400.72
2019-01-06T11:02:16.268Z,102399.67
2019-01-06T11:04:49.597Z,102401.61
2019-01-06T11:07:19.680Z,102401.09
2019-01-06T11:10:05.976Z,102402.14
2019-01-06T11:12:52.687Z,102407.43
2019-01-06T11:15:34.768Z,102404.58
2019-01-06T11:18:07.582Z,102400.20
2019-01-06T11:20:43.952Z,102404.18
2019-01-06T11:23:20.260Z,102406.16
2019-01-06T11:25:59.377Z,102402.04
2019-01-06T11:28:45.567Z,102402.54
2019-01-06T11:31:15.770Z,102396.10
2019-01-06T11:33:54.865Z,102394.52
2019-01-06T11:36:42.706Z,102392.74
2019-01-06T11:39:18.647Z,102394.82
2019-01-06T11:41:54.684Z,102391.20
2019-01-06T11:44:24.753Z,102385.42
2019-01-06T11:47:11.386Z,102390.96
2019-01-06T11:49:41.469Z,102390.42
2019-01-06T11:52:29.716Z,102385.27
2019-01-06T11:54:59.807Z,102386.19
2019-01-06T11:57:35.522Z,102380.37
2019-01-06T12:00:15.461Z,102387.78
2019-01-06T12:02:54.496Z,102390.67
2019-01-06T12:05:40.507Z,102388.34
2019-01-06T12:08:13.534Z,102387.95
2019-01-06T12:10:59.763Z,102387.20
2019-01-06T12:13:29.867Z,102388.34
2019-01-06T12:16:11.980Z,102381.91
2019-01-06T12:18:58.721Z,102384.09
2019-01-06T12:21:28.816Z,102389.87
2019-01-06T12:23:58.927Z,102393.53
2019-01-06T12:26:29.015Z,102397.14
2019-01-06T12:29:17.167Z,102393.78
2019-01-06T12:31:53.008Z,102397.63
2019-01-06T12:34:28.615Z,102396.60
2019-01-06T12:36:58.723Z,102402.25
2019-01-06T12:39:31.517Z,102400.75
2019-01-06T12:42:18.187Z,102398.72
2019-01-06T12:45:04.435Z,102403.72
2019-01-06T12:47:37.277Z,102405.52
2019-01-06T12:50:26.158Z,102402.04
2019-01-06T12:53:12.877Z,102394.67
2019-01-06T12:55:59.058Z,102403.52
2019-01-06T12:58:29.168Z,102404.32
2019-01-06T13:01:05.261Z,102402.23
2019-01-06T13:03:35.348Z,102407.78
2019-01-06T13:06:05.443Z,102407.88
2019-01-06T13:08:53.347Z,102414.35
2019-01-06T13:11:39.259Z,102417.19
2019-01-06T13:14:18.010Z,102417.03
2019-01-06T13:16:48.111Z,102420.48
2019-01-06T13:19:20.673Z,102425.24
2019-01-06T13:21:56.798Z,102427.82
2019-01-06T13:24:26.944Z,102427.97
2019-01-06T13:27:13.714Z,102430.75
2019-01-06T13:29:55.503Z,102437.20
2019-01-06T13:32:28.543Z,102431.91
2019-01-06T13:35:04.527Z,102431.66
2019-01-06T13:37:50.746Z,102431.19
2019-01-06T13:40:20.835Z,102426.44
2019-01-06T13:43:07.152Z,102427.23
2019-01-06T13:45:37.241Z,102429.02
2019-01-06T13:48:10.318Z,102423.87
2019-01-06T13:50:56.583Z,102422.67
2019-01-06T13:53:29.376Z,102423.56
2019-01-06T13:56:02.384Z,102420.24
2019-01-06T13:58:53.980Z,102421.86
2019-01-06T14:01:40.440Z,102425.47
2019-01-06T14:04:10.577Z,102436.13
2019-01-06T14:06:56.838Z,102435.27
2019-01-06T14:09:33.072Z,102435.45
2019-01-06T14:12:30.101Z,102445.29
2019-01-06T14:15:16.116Z,102445.30
2019-01-06T14:17:48.919Z,102444.31
2019-01-06T14:20:25.127Z,102438.62
2019-01-06T14:22:55.228Z,102442.34
2019-01-06T14:25:43.454Z,102455.31
2019-01-06T14:28:30.700Z,102452.44
2019-01-06T14:31:15.739Z,102449.61
2019-01-06T14:33:45.843Z,102452.44
2019-01-06T14:36:24.508Z,102450.31
2019-01-06T14:39:10.439Z,102457.45
2019-01-06T14:41:53.011Z,102456.08
2019-01-06T14:44:39.018Z,102460.59
2019-01-06T14:47:24.312Z,102459.13
2019-01-06T14:50:00.301Z,102457.34
2019-01-06T14:52:30.376Z,102460.09
2019-01-06T14:55:09.123Z,102463.91
2019-01-06T14:57:45.063Z,102466.01
2019-01-06T15:00:15.172Z,102469.36
2019-01-06T15:03:01.750Z,102462.72
2019-01-06T15:05:31.854Z,102457.97
2019-01-06T15:08:17.009Z,102466.40
2019-01-06T15:10:47.127Z,102470.02
2019-01-06T15:13:21.108Z,102468.48
2019-01-06T15:16:07.398Z,102473.23
2019-01-06T15:18:43.167Z,102481.24
2019-01-06T15:21:15.733Z,102479.95
2019-01-06T15:23:51.509Z,102478.38
2019-01-06T15:26:21.624Z,102476.08
2019-01-06T15:28:57.513Z,102477.37
2019-01-06T15:31:27.748Z,102488.38
2019-01-06T15:34:13.786Z,102481.36
2019-01-06T15:36:49.588Z,102478.59
2019-01-06T15:39:25.698Z,102477.24
2019-01-06T15:41:55.802Z,102472.48
2019-01-06T15:44:31.856Z,102474.47
2019-01-06T15:47:14.493Z,102472.84
2019-01-06T15:49:50.122Z,102469.13
2019-01-06T15:52:25.695Z,102482.44
2019-01-06T15:54:55.860Z,102482.31
2019-01-06T15:57:25.956Z,102489.36
2019-01-06T15:59:58.774Z,102484.77
2019-01-06T16:02:28.887Z,102496.42
2019-01-06T16:04:58.961Z,102491.46
2019-01-06T16:07:29.099Z,102495.86
2019-01-06T16:09:59.213Z,102494.80
2019-01-06T16:12:35.039Z,102501.64
2019-01-06T16:15:07.833Z,102495.39
2019-01-06T16:17:53.910Z,102497.98
2019-01-06T16:20:29.979Z,102493.55
2019-01-06T16:23:08.830Z,102493.23
2019-01-06T16:25:55.182Z,102493.87
2019-01-06T16:28:25.349Z,102496.61
2019-01-06T16:31:11.960Z,102493.35
2019-01-06T16:33:42.069Z,102494.39
2019-01-06T16:36:18.297Z,102494.85
2019-01-06T16:39:04.568Z,102488.97
2019-01-06T16:41:43.411Z,102492.05
2019-01-06T16:44:29.623Z,102492.05
2019-01-06T16:47:05.506Z,102489.23
2019-01-06T16:49:41.423Z,102494.91
2019-01-06T16:52:26.646Z,102497.09
2019-01-06T16:54:56.747Z,102498.86
2019-01-06T16:57:34.959Z,102491.78
2019-01-06T17:00:05.742Z,102496.36
2019-01-06T17:02:41.389Z,102496.14
2019-01-06T17:05:11.526Z,102493.87
2019-01-06T17:07:41.655Z,102502.33
2019-01-06T17:10:17.322Z,102504.80
2019-01-06T17:12:59.034Z,102500.14
2019-01-06T17:15:35.225Z,102503.52
2019-01-06T17:18:08.302Z,102495.31
2019-01-06T17:20:38.412Z,102491.24
2019-01-06T17:23:17.705Z,102503.83
2019-01-06T17:25:53.535Z,102501.67
2019-01-06T17:28:39.534Z,102506.94
2019-01-06T17:31:09.650Z,102509.77
2019-01-06T17:33:56.456Z,102499.75
2019-01-06T17:36:38.698Z,102500.16
2019-01-06T17:39:27.426Z,102500.75
2019-01-06T17:42:06.611Z,102507.30
2019-01-06T17:44:54.775Z,102514.13
2019-01-06T17:47:27.532Z,102513.01
2019-01-06T17:50:03.319Z,102512.53
2019-01-06T17:52:42.143Z,102513.30
2019-01-06T17:55:14.706Z,102516.50
2019-01-06T17:58:01.603Z,102515.39
2019-01-06T18:00:47.719Z,102518.98
2019-01-06T18:03:33.823Z,102521.82
2019-01-06T18:06:04.086Z,102517.00
2019-01-06T18:08:43.000Z,102522.89
2019-01-06T18:11:19.089Z,102524.63
2019-01-06T18:14:05.225Z,102515.81
2019-01-06T18:16:52.198Z,102520.09
2019-01-06T18:19:25.527Z,102523.08
2019-01-06T18:22:12.022Z,102520.48
2019-01-06T18:24:53.875Z,102519.70
2019-01-06T18:27:39.018Z,102519.73
2019-01-06T18:30:27.712Z,102518.11
2019-01-06T18:32:59.290Z,102517.70
2019-01-06T18:35:44.574Z,102514.77
2019-01-06T18:38:14.740Z,102516.27
2019-01-06T18:40:50.734Z,102515.24
2019-01-06T18:43:20.852Z,102515.03
2019-01-06T18:46:07.469Z,102516.47
2019-01-06T18:48:37.604Z,102516.23
2019-01-06T18:51:10.304Z,102519.01
2019-01-06T18:53:43.275Z,102516.70
2019-01-06T18:56:19.176Z,102518.98
2019-01-06T18:58:54.933Z,102522.41
2019-01-06T19:01:30.776Z,102518.59
2019-01-06T19:04:00.933Z,102524.47
2019-01-06T19:06:38.360Z,102518.14
2019-01-06T19:09:29.600Z,102522.50
2019-01-06T19:12:15.941Z,102520.83
2019-01-06T19:14:46.061Z,102522.27
2019-01-06T19:17:16.174Z,102518.17
2019-01-06T19:19:46.336Z,102518.11
2019-01-06T19:22:32.833Z,102518.86
2019-01-06T19:25:09.131Z,102522.11
2019-01-06T19:27:55.149Z,102531.87
2019-01-06T19:30:41.286Z,102525.69
2019-01-06T19:33:11.766Z,102528.19
2019-01-06T19:35:42.068Z,102530.63
2019-01-06T19:38:12.256Z,102527.59
2019-01-06T19:40:50.881Z,102541.92
2019-01-06T19:43:37.341Z,102539.89
2019-01-06T19:46:24.124Z,102534.81
2019-01-06T19:49:03.453Z,102543.74
2019-01-06T19:51:33.582Z,102538.81
2019-01-06T19:54:03.705Z,102542.66
2019-01-06T19:56:33.843Z,102536.30
2019-01-06T19:59:22.120Z,102528.87
2019-01-06T20:01:52.308Z,102536.78
2019-01-06T20:04:25.075Z,102529.58
2019-01-06T20:06:59.117Z,102524.47
2019-01-06T20:09:45.107Z,102519.96
2019-01-06T20:12:15.296Z,102529.81
2019-01-06T20:14:48.233Z,102527.78
2019-01-06T20:17:27.335Z,102525.73
2019-01-06T20:20:15.871Z,102526.72
2019-01-06T20:22:46.032Z,102523.05
2019-01-06T20:25:34.073Z,102524.34
2019-01-06T20:28:04.221Z,102520.52
2019-01-06T20:30:52.625Z,102524.34
2019-01-06T20:33:32.661Z,102516.43
2019-01-06T20:36:08.763Z,102516.56
2019-01-06T20:38:51.190Z,102519.01
2019-01-06T20:41:39.227Z,102508.78
2019-01-06T20:44:13.655Z,102505.51
2019-01-06T20:46:59.950Z,102503.98
2019-01-06T20:49:34.524Z,102509.63
2019-01-06T20:52:07.386Z,102510.88
2019-01-06T20:54:43.210Z,102512.28
2019-01-06T20:57:30.326Z,102506.64
2019-01-06T21:00:06.453Z,102504.46
2019-01-06T21:02:52.966Z,102509.44
2019-01-06T21:05:35.183Z,102512.02
2019-01-06T21:08:20.268Z,102518.12
2019-01-06T21:11:02.193Z,102513.14
2019-01-06T21:13:33.836Z,102519.09
2019-01-06T21:16:09.790Z,102515.59
2019-01-06T21:18:39.918Z,102518.23
2019-01-06T21:21:28.178Z,102519.52
2019-01-06T21:23:58.324Z,102514.19
2019-01-06T21:26:44.277Z,102515.59
2019-01-06T21:29:26.287Z,102521.23
2019-01-06T21:31:58.804Z,102514.07
2019-01-06T21:34:28.927Z,102515.91
2019-01-06T21:37:04.938Z,102518.78
2019-01-06T21:39:43.804Z,102522.61
2019-01-06T21:42:30.003Z,102522.15
2019-01-06T21:45:18.455Z,102522.89
2019-01-06T21:47:57.462Z,102520.05
2019-01-06T21:50:39.009Z,102523.75
2019-01-06T21:53:09.134Z,102522.20
2019-01-06T21:55:39.241Z,102517.38
2019-01-06T21:58:09.386Z,102513.88
2019-01-06T22:00:48.450Z,102516.21
2019-01-06T22:03:18.584Z,102519.02
2019-01-06T22:05:51.670Z,102516.56
2019-01-06T22:08:27.606Z,102522.31
2019-01-06T22:11:09.658Z,102511.92
2019-01-06T22:13:56.248Z,102513.02
2019-01-06T22:16:32.422Z,102525.43
2019-01-06T22:19:02.538Z,102522.47
2019-01-06T22:21:38.596Z,102522.66
2019-01-06T22:24:21.008Z,102528.89
2019-01-06T22:26:51.070Z,102517.17
2019-01-06T22:29:37.847Z,102519.83
2019-01-06T22:32:07.952Z,102516.29
2019-01-06T22:34:43.853Z,102521.23
2019-01-06T22:37:19.670Z,102519.67
2019-01-06T22:39:49.788Z,102515.39
2019-01-06T22:42:19.886Z,102510.45
2019-01-06T22:45:06.144Z,102503.22
2019-01-06T22:47:39.072Z,102518.23
2019-01-06T22:50:15.131Z,102518.73
2019-01-06T22:52:51.409Z,102515.86
2019-01-06T22:55:39.598Z,102505.98
2019-01-06T22:58:09.705Z,102504.46
2019-01-06T23:00:55.892Z,102511.34
2019-01-06T23:03:28.424Z,102512.48
2019-01-06T23:05:58.533Z,102511.11
2019-01-06T23:08:45.102Z,102504.25
2019-01-06T23:11:33.537Z,102516.81
2019-01-06T23:14:12.594Z,102505.82
2019-01-06T23:16:58.877Z,102506.20
2019-01-06T23:19:41.304Z,102512.86
2019-01-06T23:22:27.935Z,102507.91
2019-01-06T23:25:07.195Z,102510.83
2019-01-06T23:27:55.575Z,102514.60
2019-01-06T23:30:34.516Z,102514.38
2019-01-06T23:33:20.469Z,102514.81
2019-01-06T23:35:50.570Z,102507.03
2019-01-06T23:38:20.664Z,102510.67
2019-01-06T23:41:02.743Z,102501.03
2019-01-06T23:43:38.823Z,102497.22
2019-01-06T23:46:11.637Z,102499.60
2019-01-06T23:48:44.374Z,102499.95
2019-01-06T23:51:14.482Z,102495.28
2019-01-06T23:53:47.443Z,102499.38
2019-01-06T23:56:17.540Z,102503.55
2019-01-06T23:58:53.328Z,102498.38
